createdAt,value
2023-05-08T00:00:20.042Z,5.33
2023-05-08T00:02:47.008Z,4.00
2023-05-08T00:05:17.303Z,4.40
2023-05-08T00:07:46.253Z,4.50
2023-05-08T00:10:15.675Z,4.10
2023-05-08T00:12:42.750Z,3.93
2023-05-08T00:15:12.534Z,4.03
2023-05-08T00:17:43.989Z,4.20
2023-05-08T00:20:12.167Z,3.87
2023-05-08T00:22:39.290Z,3.90
2023-05-08T00:25:06.918Z,4.10
2023-05-08T00:27:38.947Z,4.80
2023-05-08T00:30:10.813Z,4.40
2023-05-08T00:32:38.007Z,4.30
2023-05-08T00:35:05.429Z,4.60
2023-05-08T00:37:35.457Z,4.60
2023-05-08T00:40:02.310Z,4.33
2023-05-08T00:42:31.395Z,4.17
2023-05-08T00:45:03.232Z,3.80
2023-05-08T00:47:31.890Z,4.23
2023-05-08T00:50:00.768Z,3.90
2023-05-08T00:52:35.166Z,4.17
2023-05-08T00:55:03.408Z,4.10
2023-05-08T00:57:32.727Z,3.90
2023-05-08T01:00:01.895Z,4.40
2023-05-08T01:02:31.643Z,4.70
2023-05-08T01:04:58.818Z,4.90
2023-05-08T01:07:26.069Z,4.20
2023-05-08T01:09:52.910Z,4.90
2023-05-08T01:12:34.622Z,4.90
2023-05-08T01:15:12.547Z,4.57
2023-05-08T01:17:57.762Z,5.13
2023-05-08T01:20:42.185Z,4.97
2023-05-08T01:24:03.314Z,4.70
2023-05-08T01:26:39.203Z,4.97
2023-05-08T01:29:46.489Z,4.13
2023-05-08T01:32:46.400Z,4.80
2023-05-08T01:35:40.885Z,5.00
2023-05-08T01:38:34.652Z,5.00
2023-05-08T01:41:10.766Z,4.80
2023-05-08T01:44:00.429Z,5.13
2023-05-08T01:46:29.501Z,5.07
2023-05-08T01:49:25.685Z,5.00
2023-05-08T01:52:08.686Z,4.73
2023-05-08T01:54:44.817Z,5.37
2023-05-08T01:57:15.251Z,4.63
2023-05-08T01:59:48.741Z,4.70
2023-05-08T02:02:17.052Z,4.87
2023-05-08T02:04:45.028Z,4.50
2023-05-08T02:07:11.939Z,5.03
2023-05-08T02:09:41.385Z,5.17
2023-05-08T02:12:09.412Z,4.73
2023-05-08T02:14:38.485Z,4.73
2023-05-08T02:17:09.290Z,4.90
2023-05-08T02:19:44.462Z,5.00
2023-05-08T02:22:16.606Z,4.47
2023-05-08T02:24:48.991Z,4.93
2023-05-08T02:27:24.502Z,5.23
2023-05-08T02:29:55.132Z,5.60
2023-05-08T02:32:25.519Z,4.90
2023-05-08T02:35:03.532Z,5.10
2023-05-08T02:37:32.382Z,5.17
2023-05-08T02:39:59.887Z,5.10
2023-05-08T02:42:29.344Z,5.00
2023-05-08T02:44:56.200Z,5.00
2023-05-08T02:47:30.113Z,5.10
2023-05-08T02:50:10.071Z,5.00
2023-05-08T02:52:54.655Z,4.90
2023-05-08T02:55:41.264Z,5.60
2023-05-08T02:58:24.344Z,5.20
2023-05-08T03:01:07.663Z,5.00
2023-05-08T03:03:45.251Z,5.33
2023-05-08T03:06:22.023Z,5.47
2023-05-08T03:08:50.874Z,5.30
2023-05-08T03:11:28.878Z,5.27
2023-05-08T03:14:03.855Z,6.03
2023-05-08T03:16:36.705Z,5.43
2023-05-08T03:19:09.509Z,4.80
2023-05-08T03:21:41.113Z,5.40
2023-05-08T03:24:09.798Z,5.23
2023-05-08T03:26:44.742Z,5.17
2023-05-08T03:29:15.426Z,5.50
2023-05-08T03:31:46.288Z,5.10
2023-05-08T03:34:20.824Z,5.70
2023-05-08T03:36:49.831Z,5.80
2023-05-08T03:39:20.093Z,6.33
2023-05-08T03:41:48.073Z,6.30
2023-05-08T03:44:15.688Z,5.57
2023-05-08T03:46:43.309Z,5.60
2023-05-08T03:49:10.710Z,5.83
2023-05-08T03:51:40.365Z,6.10
2023-05-08T03:54:07.256Z,5.63
2023-05-08T03:56:36.565Z,5.67
2023-05-08T03:59:29.144Z,5.47
2023-05-08T04:02:21.715Z,5.60
2023-05-08T04:04:56.513Z,5.37
2023-05-08T04:07:27.455Z,6.30
2023-05-08T04:10:26.493Z,5.73
2023-05-08T04:13:10.763Z,5.63
2023-05-08T04:16:17.824Z,6.20
2023-05-08T04:18:49.936Z,6.10
2023-05-08T04:21:26.087Z,5.80
2023-05-08T04:23:56.643Z,7.00
2023-05-08T04:26:23.664Z,5.60
2023-05-08T04:28:51.091Z,5.50
2023-05-08T04:31:19.844Z,5.70
2023-05-08T04:33:47.030Z,6.03
2023-05-08T04:36:16.633Z,6.40
2023-05-08T04:38:44.063Z,6.07
2023-05-08T04:41:11.096Z,6.33
2023-05-08T04:43:40.511Z,6.17
2023-05-08T04:46:10.486Z,13.83
2023-05-08T04:48:37.608Z,7.80
2023-05-08T04:51:04.660Z,6.17
2023-05-08T04:53:34.634Z,6.47
2023-05-08T04:56:04.757Z,7.07
2023-05-08T04:58:31.868Z,5.90
2023-05-08T05:01:03.705Z,5.57
2023-05-08T05:03:30.842Z,7.60
2023-05-08T05:06:02.313Z,6.30
2023-05-08T05:08:32.222Z,5.90
2023-05-08T05:10:59.359Z,7.10
2023-05-08T05:13:26.430Z,6.83
2023-05-08T05:15:54.677Z,6.07
2023-05-08T05:18:21.887Z,6.63
2023-05-08T05:20:48.730Z,6.43
2023-05-08T05:23:15.677Z,6.23
2023-05-08T05:25:42.639Z,6.17
2023-05-08T05:28:09.703Z,6.67
2023-05-08T05:30:39.063Z,6.70
2023-05-08T05:33:06.339Z,6.10
2023-05-08T05:35:33.210Z,6.30
2023-05-08T05:38:02.391Z,6.33
2023-05-08T05:40:29.248Z,7.00
2023-05-08T05:42:56.260Z,7.07
2023-05-08T05:45:26.259Z,6.73
2023-05-08T05:47:54.051Z,6.70
2023-05-08T05:50:22.427Z,7.20
2023-05-08T05:52:49.316Z,7.10
2023-05-08T05:55:20.536Z,7.30
2023-05-08T05:57:47.702Z,6.50
2023-05-08T06:00:17.666Z,6.47
2023-05-08T06:02:45.798Z,7.90
2023-05-08T06:05:15.936Z,7.33
2023-05-08T06:07:46.395Z,7.17
2023-05-08T06:10:13.375Z,6.97
2023-05-08T06:12:43.096Z,7.10
2023-05-08T06:15:11.295Z,7.17
2023-05-08T06:17:38.408Z,7.50
2023-05-08T06:20:06.505Z,7.33
2023-05-08T06:22:37.703Z,7.00
2023-05-08T06:25:06.996Z,8.10
2023-05-08T06:27:34.868Z,8.20
2023-05-08T06:30:02.504Z,8.50
2023-05-08T06:32:29.584Z,8.67
2023-05-08T06:35:01.198Z,7.67
2023-05-08T06:37:28.174Z,6.83
2023-05-08T06:40:10.233Z,7.97
2023-05-08T06:42:38.745Z,8.33
2023-05-08T06:45:06.508Z,8.27
2023-05-08T06:47:33.756Z,9.30
2023-05-08T06:50:01.306Z,8.07
2023-05-08T06:52:28.542Z,8.03
2023-05-08T06:54:57.757Z,8.83
2023-05-08T06:57:29.409Z,8.50
2023-05-08T07:00:00.117Z,8.13
2023-05-08T07:02:27.155Z,7.97
2023-05-08T07:04:54.156Z,8.10
2023-05-08T07:07:21.195Z,8.63
2023-05-08T07:09:48.051Z,8.20
2023-05-08T07:12:16.713Z,8.97
2023-05-08T07:14:43.796Z,8.10
2023-05-08T07:17:10.868Z,8.70
2023-05-08T07:19:38.762Z,8.53
2023-05-08T07:22:08.507Z,8.97
2023-05-08T07:24:35.638Z,8.70
2023-05-08T07:27:03.259Z,8.87
2023-05-08T07:29:30.216Z,7.33
2023-05-08T07:31:57.474Z,9.20
2023-05-08T07:34:26.835Z,7.93
2023-05-08T07:36:56.238Z,8.67
2023-05-08T07:39:23.229Z,8.70
2023-05-08T07:41:50.281Z,9.77
2023-05-08T07:44:17.223Z,8.87
2023-05-08T07:46:44.296Z,8.43
2023-05-08T07:49:11.352Z,9.20
2023-05-08T07:51:38.297Z,8.20
2023-05-08T07:54:09.695Z,8.77
2023-05-08T07:56:36.539Z,9.63
2023-05-08T07:59:06.424Z,9.20
2023-05-08T08:01:35.969Z,9.60
2023-05-08T08:04:03.298Z,8.50
2023-05-08T08:06:30.555Z,8.30
2023-05-08T08:09:00.377Z,8.07
2023-05-08T08:11:27.507Z,9.73
2023-05-08T08:13:54.411Z,8.90
2023-05-08T08:16:21.339Z,8.73
2023-05-08T08:18:52.835Z,9.03
2023-05-08T08:21:22.946Z,9.13
2023-05-08T08:23:52.304Z,8.90
2023-05-08T08:26:21.711Z,9.20
2023-05-08T08:28:48.803Z,8.03
2023-05-08T08:31:16.450Z,8.90
2023-05-08T08:33:43.728Z,7.70
2023-05-08T08:36:17.229Z,7.83
2023-05-08T08:38:46.566Z,8.10
2023-05-08T08:41:15.353Z,8.60
2023-05-08T08:43:45.471Z,7.60
2023-05-08T08:46:15.442Z,8.43
2023-05-08T08:48:47.399Z,7.63
2023-05-08T08:51:32.789Z,8.13
2023-05-08T08:54:14.151Z,8.60
2023-05-08T08:56:45.078Z,7.70
2023-05-08T08:59:13.369Z,7.73
2023-05-08T09:01:41.351Z,8.60
2023-05-08T09:04:09.253Z,8.70
2023-05-08T09:06:38.180Z,8.23
2023-05-08T09:09:07.880Z,7.60
2023-05-08T09:11:36.802Z,7.60
2023-05-08T09:14:06.690Z,6.97
2023-05-08T09:16:33.957Z,8.00
2023-05-08T09:19:03.857Z,7.87
2023-05-08T09:21:32.672Z,7.27
2023-05-08T09:24:08.459Z,6.90
2023-05-08T09:26:42.190Z,7.00
2023-05-08T09:29:17.067Z,7.67
2023-05-08T09:31:52.213Z,7.77
2023-05-08T09:34:33.327Z,6.70
2023-05-08T09:37:09.577Z,7.20
2023-05-08T09:39:43.369Z,7.70
2023-05-08T09:42:12.585Z,6.73
2023-05-08T09:44:54.340Z,7.03
2023-05-08T09:47:25.648Z,6.90
2023-05-08T09:50:12.712Z,6.40
2023-05-08T09:52:49.367Z,6.90
2023-05-08T09:55:18.930Z,6.17
2023-05-08T09:57:59.906Z,6.03
2023-05-08T10:00:32.581Z,5.47
2023-05-08T10:03:04.217Z,7.07
2023-05-08T10:05:34.631Z,6.00
2023-05-08T10:08:23.482Z,5.50
2023-05-08T10:10:54.921Z,5.10
2023-05-08T10:13:21.925Z,5.50
2023-05-08T10:15:52.657Z,5.70
2023-05-08T10:18:22.409Z,4.93
2023-05-08T10:20:51.301Z,5.13
2023-05-08T10:23:19.424Z,4.90
2023-05-08T10:25:49.393Z,5.33
2023-05-08T10:28:27.735Z,5.47
2023-05-08T10:31:00.399Z,4.60
2023-05-08T10:33:34.921Z,4.33
2023-05-08T10:36:03.066Z,4.60
2023-05-08T10:38:33.645Z,4.57
2023-05-08T10:41:01.490Z,5.10
2023-05-08T10:43:32.511Z,4.30
2023-05-08T10:46:11.843Z,4.70
2023-05-08T10:49:09.514Z,4.37
2023-05-08T10:52:18.305Z,4.80
2023-05-08T10:54:52.116Z,3.73
2023-05-08T10:57:19.237Z,4.03
2023-05-08T10:59:47.602Z,4.50
2023-05-08T11:02:26.814Z,4.40
2023-05-08T11:04:53.770Z,4.30
2023-05-08T11:07:30.286Z,4.40
2023-05-08T11:10:15.920Z,4.00
2023-05-08T11:12:51.491Z,4.93
2023-05-08T11:15:37.980Z,3.63
2023-05-08T11:18:09.122Z,4.30
2023-05-08T11:20:41.853Z,4.13
2023-05-08T11:23:32.911Z,3.90
2023-05-08T11:26:16.552Z,3.70
2023-05-08T11:28:59.257Z,3.87
2023-05-08T11:31:50.435Z,3.57
2023-05-08T11:34:42.806Z,3.40
2023-05-08T11:37:11.475Z,3.93
2023-05-08T11:39:40.728Z,3.97
2023-05-08T11:42:27.163Z,4.43
2023-05-08T11:45:07.732Z,4.50
2023-05-08T11:47:44.388Z,4.10
2023-05-08T11:50:15.542Z,4.30
2023-05-08T11:52:45.039Z,3.90
2023-05-08T11:55:15.880Z,3.20
2023-05-08T11:57:45.302Z,4.10
2023-05-08T12:00:13.805Z,4.13
2023-05-08T12:02:43.883Z,3.53
2023-05-08T12:05:11.851Z,4.10
2023-05-08T12:07:48.277Z,3.50
2023-05-08T12:10:17.029Z,3.60
2023-05-08T12:12:45.366Z,3.50
2023-05-08T12:15:16.277Z,3.53
2023-05-08T12:17:43.700Z,3.70
2023-05-08T12:20:15.885Z,3.73
2023-05-08T12:22:52.311Z,3.00
2023-05-08T12:25:20.005Z,2.97
2023-05-08T12:27:49.946Z,3.37
2023-05-08T12:30:17.652Z,3.30
2023-05-08T12:32:46.352Z,3.30
2023-05-08T12:35:14.058Z,3.20
2023-05-08T12:37:41.082Z,3.20
2023-05-08T12:40:19.521Z,2.90
2023-05-08T12:42:52.140Z,4.00
2023-05-08T12:45:33.872Z,3.10
2023-05-08T12:48:11.139Z,3.00
2023-05-08T12:50:41.481Z,3.70
2023-05-08T12:53:17.155Z,3.00
2023-05-08T12:55:58.061Z,3.30
2023-05-08T12:58:27.972Z,2.80
2023-05-08T13:01:16.169Z,2.87
2023-05-08T13:03:47.199Z,2.80
2023-05-08T13:06:22.480Z,3.50
2023-05-08T13:08:56.733Z,2.90
2023-05-08T13:11:33.461Z,2.83
2023-05-08T13:14:03.368Z,3.27
2023-05-08T13:16:30.514Z,2.70
2023-05-08T13:18:57.789Z,3.23
2023-05-08T13:21:27.329Z,2.70
2023-05-08T13:23:56.617Z,2.93
2023-05-08T13:26:26.851Z,3.53
2023-05-08T13:28:56.202Z,3.20
2023-05-08T13:31:26.088Z,2.30
2023-05-08T13:33:55.655Z,2.70
2023-05-08T13:36:26.378Z,2.60
2023-05-08T13:38:54.811Z,2.60
2023-05-08T13:41:22.110Z,2.60
2023-05-08T13:43:51.382Z,2.83
2023-05-08T13:46:21.387Z,2.70
2023-05-08T13:48:52.892Z,2.70
2023-05-08T13:51:19.760Z,2.60
2023-05-08T13:53:49.162Z,2.37
2023-05-08T13:56:18.372Z,3.30
2023-05-08T13:58:45.442Z,2.50
2023-05-08T14:01:25.667Z,2.77
2023-05-08T14:03:56.836Z,2.53
2023-05-08T14:06:29.443Z,2.50
2023-05-08T14:08:59.019Z,2.63
2023-05-08T14:11:25.928Z,2.30
2023-05-08T14:13:53.031Z,2.07
2023-05-08T14:16:22.171Z,2.30
2023-05-08T14:18:49.677Z,2.53
2023-05-08T14:21:16.600Z,2.73
2023-05-08T14:23:44.631Z,2.37
2023-05-08T14:26:11.645Z,2.50
2023-05-08T14:28:38.716Z,2.67
2023-05-08T14:31:06.047Z,2.00
2023-05-08T14:33:33.145Z,2.53
2023-05-08T14:36:00.379Z,2.40
2023-05-08T14:38:29.963Z,2.20
2023-05-08T14:40:56.916Z,2.00
2023-05-08T14:43:24.049Z,2.13
2023-05-08T14:45:51.815Z,2.33
2023-05-08T14:48:21.344Z,2.40
2023-05-08T14:50:50.353Z,2.00
2023-05-08T14:53:19.915Z,2.10
2023-05-08T14:55:47.398Z,1.90
2023-05-08T14:58:17.120Z,2.00
2023-05-08T15:00:46.828Z,1.80
2023-05-08T15:03:14.083Z,2.00
2023-05-08T15:05:40.969Z,1.93
2023-05-08T15:08:08.580Z,2.07
2023-05-08T15:10:36.710Z,2.00
2023-05-08T15:13:03.870Z,1.60
2023-05-08T15:15:33.148Z,1.97
2023-05-08T15:18:00.201Z,1.90
2023-05-08T15:20:27.182Z,1.80
2023-05-08T15:22:56.620Z,2.27
2023-05-08T15:25:26.207Z,1.63
2023-05-08T15:27:53.154Z,1.67
2023-05-08T15:30:21.169Z,1.90
2023-05-08T15:32:51.019Z,1.97
2023-05-08T15:35:21.946Z,1.70
2023-05-08T15:37:48.857Z,1.77
2023-05-08T15:40:17.215Z,1.70
2023-05-08T15:42:44.160Z,1.53
2023-05-08T15:45:16.597Z,1.90
2023-05-08T15:47:43.859Z,1.90
2023-05-08T15:50:13.286Z,1.83
2023-05-08T15:52:42.795Z,1.47
2023-05-08T15:55:12.586Z,1.80
2023-05-08T15:57:44.289Z,1.90
2023-05-08T16:00:15.340Z,1.83
2023-05-08T16:02:42.730Z,1.80
2023-05-08T16:05:12.464Z,1.70
2023-05-08T16:07:39.483Z,1.80
2023-05-08T16:10:10.264Z,1.80
2023-05-08T16:12:39.438Z,1.70
2023-05-08T16:15:09.088Z,1.80
2023-05-08T16:17:36.028Z,1.67
2023-05-08T16:20:05.850Z,2.20
2023-05-08T16:22:32.790Z,1.60
2023-05-08T16:24:59.966Z,1.80
2023-05-08T16:27:30.810Z,2.20
2023-05-08T16:29:57.859Z,1.73
2023-05-08T16:32:28.066Z,1.90
2023-05-08T16:34:55.042Z,1.97
2023-05-08T16:37:21.917Z,1.70
2023-05-08T16:39:53.394Z,2.20
2023-05-08T16:42:20.944Z,1.83
2023-05-08T16:44:50.684Z,1.90
2023-05-08T16:47:19.956Z,1.53
2023-05-08T16:49:47.074Z,1.83
2023-05-08T16:52:14.088Z,1.83
2023-05-08T16:54:41.218Z,2.10
2023-05-08T16:57:08.104Z,1.80
2023-05-08T16:59:35.009Z,1.43
2023-05-08T17:02:02.172Z,2.30
2023-05-08T17:04:30.857Z,1.90
2023-05-08T17:06:59.867Z,1.90
2023-05-08T17:09:28.028Z,2.20
2023-05-08T17:11:55.060Z,2.10
2023-05-08T17:14:22.163Z,1.90
2023-05-08T17:16:52.031Z,2.70
2023-05-08T17:19:18.898Z,1.87
2023-05-08T17:21:48.316Z,2.30
2023-05-08T17:24:17.483Z,2.73
2023-05-08T17:26:48.910Z,2.40
2023-05-08T17:29:15.892Z,2.43
2023-05-08T17:31:42.810Z,2.23
2023-05-08T17:34:09.772Z,1.60
2023-05-08T17:36:36.721Z,2.10
2023-05-08T17:39:04.024Z,2.13
2023-05-08T17:41:30.915Z,3.10
2023-05-08T17:43:58.097Z,2.00
2023-05-08T17:46:25.165Z,2.37
2023-05-08T17:48:54.840Z,2.17
2023-05-08T17:51:24.082Z,1.90
2023-05-08T17:53:53.019Z,2.63
2023-05-08T17:56:23.287Z,2.50
2023-05-08T17:58:52.594Z,2.27
2023-05-08T18:01:20.464Z,2.60
2023-05-08T18:03:48.537Z,1.90
2023-05-08T18:06:17.140Z,2.53
2023-05-08T18:08:45.558Z,2.90
2023-05-08T18:11:30.785Z,2.10
2023-05-08T18:14:00.110Z,2.17
2023-05-08T18:16:27.051Z,2.73
2023-05-08T18:18:56.266Z,2.27
2023-05-08T18:21:25.490Z,2.40
2023-05-08T18:23:52.446Z,1.93
2023-05-08T18:26:19.293Z,2.10
2023-05-08T18:28:46.188Z,2.17
2023-05-08T18:31:13.649Z,1.87
2023-05-08T18:33:43.569Z,2.00
2023-05-08T18:36:13.148Z,2.30
2023-05-08T18:38:42.568Z,2.00
2023-05-08T18:41:09.561Z,2.10
2023-05-08T18:43:46.574Z,2.40
2023-05-08T18:46:14.483Z,2.00
2023-05-08T18:48:41.689Z,1.87
2023-05-08T18:51:09.096Z,2.30
2023-05-08T18:53:40.800Z,1.97
2023-05-08T18:56:11.569Z,2.30
2023-05-08T18:58:41.231Z,2.07
2023-05-08T19:01:09.133Z,1.87
2023-05-08T19:03:38.457Z,2.00
2023-05-08T19:06:08.038Z,1.90
2023-05-08T19:08:35.012Z,2.50
2023-05-08T19:11:06.618Z,2.20
2023-05-08T19:13:37.224Z,2.40
2023-05-08T19:16:04.534Z,2.03
2023-05-08T19:18:32.019Z,2.17
2023-05-08T19:20:59.202Z,2.37
2023-05-08T19:23:26.244Z,2.20
2023-05-08T19:25:54.715Z,2.10
2023-05-08T19:28:21.969Z,2.60
2023-05-08T19:30:52.706Z,2.20
2023-05-08T19:33:20.855Z,1.90
2023-05-08T19:35:48.541Z,1.80
2023-05-08T19:38:17.883Z,2.40
2023-05-08T19:40:56.603Z,2.40
2023-05-08T19:43:26.990Z,2.43
2023-05-08T19:45:56.839Z,1.90
2023-05-08T19:48:27.597Z,2.40
2023-05-08T19:50:55.246Z,2.10
2023-05-08T19:53:26.013Z,2.10
2023-05-08T19:55:55.651Z,2.77
2023-05-08T19:58:27.443Z,2.10
2023-05-08T20:00:54.729Z,2.70
2023-05-08T20:03:22.026Z,1.87
2023-05-08T20:05:57.426Z,2.63
2023-05-08T20:08:24.742Z,2.43
2023-05-08T20:10:52.245Z,2.10
2023-05-08T20:13:19.320Z,2.43
2023-05-08T20:15:48.860Z,2.10
2023-05-08T20:18:15.939Z,2.40
2023-05-08T20:20:43.662Z,2.27
2023-05-08T20:23:13.619Z,2.10
2023-05-08T20:25:41.096Z,2.53
2023-05-08T20:28:08.168Z,2.80
2023-05-08T20:30:35.181Z,2.87
2023-05-08T20:33:04.975Z,2.43
2023-05-08T20:35:35.380Z,2.37
2023-05-08T20:38:05.343Z,2.60
2023-05-08T20:40:32.429Z,2.30
2023-05-08T20:43:01.488Z,2.63
2023-05-08T20:45:32.976Z,2.73
2023-05-08T20:47:59.927Z,2.30
2023-05-08T20:50:29.157Z,2.37
2023-05-08T20:52:56.118Z,2.60
2023-05-08T20:55:23.268Z,2.40
2023-05-08T20:57:50.220Z,2.60
2023-05-08T21:00:19.774Z,2.57
2023-05-08T21:02:46.894Z,2.50
2023-05-08T21:05:14.100Z,2.40
2023-05-08T21:07:43.483Z,2.90
2023-05-08T21:10:10.873Z,3.03
2023-05-08T21:12:44.559Z,2.13
2023-05-08T21:15:11.673Z,2.60
2023-05-08T21:17:41.832Z,2.63
2023-05-08T21:20:09.743Z,2.40
2023-05-08T21:22:36.972Z,2.67
2023-05-08T21:25:06.476Z,3.40
2023-05-08T21:27:33.433Z,2.60
2023-05-08T21:30:00.778Z,2.23
2023-05-08T21:32:27.947Z,2.73
2023-05-08T21:34:56.057Z,2.20
2023-05-08T21:37:23.937Z,2.73
2023-05-08T21:39:50.827Z,2.87
2023-05-08T21:42:18.698Z,2.97
2023-05-08T21:44:51.786Z,2.53
2023-05-08T21:47:23.106Z,3.30
2023-05-08T21:49:50.290Z,2.60
2023-05-08T21:52:22.189Z,3.30
2023-05-08T21:54:50.620Z,2.53
2023-05-08T21:57:21.189Z,2.60
2023-05-08T21:59:49.580Z,3.20
2023-05-08T22:02:16.661Z,2.90
2023-05-08T22:04:44.694Z,2.67
2023-05-08T22:07:13.380Z,2.10
2023-05-08T22:09:43.490Z,2.60
2023-05-08T22:12:10.663Z,2.87
2023-05-08T22:14:38.870Z,3.00
2023-05-08T22:17:07.900Z,2.87
2023-05-08T22:19:38.577Z,3.43
2023-05-08T22:22:05.608Z,2.30
2023-05-08T22:24:32.716Z,2.33
2023-05-08T22:26:59.648Z,2.90
2023-05-08T22:29:27.243Z,2.90
2023-05-08T22:31:57.042Z,2.53
2023-05-08T22:34:24.520Z,3.40
2023-05-08T22:36:52.039Z,3.00
2023-05-08T22:39:24.123Z,3.23
2023-05-08T22:41:51.036Z,2.97
2023-05-08T22:44:18.282Z,3.03
2023-05-08T22:46:47.830Z,2.90
2023-05-08T22:49:19.850Z,2.90
2023-05-08T22:51:46.831Z,2.90
2023-05-08T22:54:13.872Z,2.97
2023-05-08T22:56:41.152Z,3.33
2023-05-08T22:59:12.703Z,2.57
2023-05-08T23:01:39.827Z,2.57
2023-05-08T23:04:09.995Z,3.43
2023-05-08T23:06:36.906Z,3.17
2023-05-08T23:09:04.480Z,2.80
2023-05-08T23:11:31.753Z,2.60
2023-05-08T23:13:58.992Z,3.37
2023-05-08T23:16:28.935Z,3.13
2023-05-08T23:18:55.928Z,3.07
2023-05-08T23:21:23.195Z,2.70
2023-05-08T23:23:50.232Z,2.63
2023-05-08T23:26:18.208Z,3.13
2023-05-08T23:28:45.217Z,2.93
2023-05-08T23:31:16.913Z,2.97
2023-05-08T23:33:43.861Z,3.30
2023-05-08T23:36:13.250Z,3.00
2023-05-08T23:38:40.640Z,3.00
2023-05-08T23:41:08.054Z,3.10
2023-05-08T23:43:34.936Z,3.23
2023-05-08T23:46:02.036Z,3.57
2023-05-08T23:48:34.381Z,3.30
2023-05-08T23:51:01.589Z,3.10
2023-05-08T23:53:28.650Z,3.10
2023-05-08T23:55:57.958Z,3.13
2023-05-08T23:58:27.915Z,2.60
